PWSweather.com
Personal Weather Stations
Station Observations
DW1039
Liberty & Fairfield Townships, Hamilton, OH 45011

Liberty & Fairfield TownshipsHamilton, OH 45011

Lat: 39.3933, Lon: -84.477

Elevation: 780

Station Type: Davis Vantage Pro2 (Daytime Fan Aspirated)

http://www.lfweathercenter.com/

Latest ConditionsUpdated 5:50:09 PM EST Thursday, Dec 14, 2017
Currently Today's Max Today's Min Today's Average
Temperature 23.4°F-4.8°C 37.8°F3.2°C 23.4°F-4.8°C 27.3°F-2.6°C
Dew Point 16.7°F-8.5°C 30.3°F-0.9°C 16.7°F-8.5°C 20.3°F-6.5°C
Winds Calm Calm 16.0 mph W25.7 kmh W - 4.8 mph 7.7 kmh
Wind Gusts -- 27.0 mph43.5 kmh - -
Humidity 75% 78% 71% 75%
Pressure 30.13 in1020.3 mb 30.13 in1020.3 mb 29.63 in1003.4 mb -
Hour Temp Dew Point Humidity Winds Wind Gusts Pressure Precip Precip Rate Daily Precip Total
05:50 PM 23.4°F-4.8°C 16.7°F-8.5°C 75% Calm Calm -- 30.13 in1020.3 mb 0.00 in0.0 mm 0.00 in0.0 mm 0.00 in0.0 mm
05:40 PM 23.7°F-4.6°C 17.0°F-8.3°C 75% Calm Calm -- 30.13 in1020.3 mb 0.00 in0.0 mm 0.00 in0.0 mm 0.00 in0.0 mm
05:30 PM 24.0°F-4.4°C 16.9°F-8.4°C 74% Calm Calm -- 30.13 in1020.3 mb 0.00 in0.0 mm 0.00 in0.0 mm 0.00 in0.0 mm
05:20 PM 24.3°F-4.3°C 17.2°F-8.2°C 74% Calm Calm -- 30.12 in1020.0 mb 0.00 in0.0 mm 0.00 in0.0 mm 0.00 in0.0 mm
05:10 PM 24.7°F-4.1°C 17.3°F-8.2°C 73% Calm Calm -- 30.12 in1020.0 mb 0.00 in0.0 mm 0.00 in0.0 mm 0.00 in0.0 mm
05:00 PM 24.9°F-3.9°C 17.5°F-8.1°C 73% Calm Calm -- 30.12 in1020.0 mb 0.00 in0.0 mm 0.00 in0.0 mm 0.00 in0.0 mm
04:50 PM 25.1°F-3.8°C 17.4°F-8.1°C 72% Calm Calm -- 30.12 in1020.0 mb 0.00 in0.0 mm 0.00 in0.0 mm 0.00 in0.0 mm
04:40 PM 25.4°F-3.7°C 17.7°F-7.9°C 72% Calm Calm 1.0 mph1.6 kmh 30.11 in1019.6 mb 0.00 in0.0 mm 0.00 in0.0 mm 0.00 in0.0 mm
04:30 PM 25.6°F-3.6°C 17.8°F-7.9°C 72% Calm Calm -- 30.10 in1019.3 mb 0.00 in0.0 mm 0.00 in0.0 mm 0.00 in0.0 mm
04:20 PM 25.8°F-3.4°C 18.0°F-7.8°C 72% Calm Calm 4.0 mph6.4 kmh 30.11 in1019.6 mb 0.00 in0.0 mm 0.00 in0.0 mm 0.00 in0.0 mm
04:10 PM 25.9°F-3.4°C 17.8°F-7.9°C 71% Calm Calm 5.0 mph8.0 kmh 30.10 in1019.3 mb 0.00 in0.0 mm 0.00 in0.0 mm 0.00 in0.0 mm
04:00 PM 25.9°F-3.4°C 17.8°F-7.9°C 71% Calm Calm 3.0 mph4.8 kmh 30.10 in1019.3 mb 0.00 in0.0 mm 0.00 in0.0 mm 0.00 in0.0 mm
03:50 PM 26.0°F-3.3°C 17.9°F-7.8°C 71% 2.0 mph NE3.2 kmh NE 3.0 mph4.8 kmh 30.10 in1019.3 mb 0.00 in0.0 mm 0.00 in0.0 mm 0.00 in0.0 mm
03:40 PM 26.2°F-3.2°C 18.1°F-7.7°C 71% 2.0 mph NE3.2 kmh NE 6.0 mph9.7 kmh 30.09 in1019.0 mb 0.00 in0.0 mm 0.00 in0.0 mm 0.00 in0.0 mm
03:30 PM 26.1°F-3.3°C 18.3°F-7.6°C 72% Calm Calm 7.0 mph11.3 kmh 30.09 in1019.0 mb 0.00 in0.0 mm 0.00 in0.0 mm 0.00 in0.0 mm
03:20 PM 25.9°F-3.4°C 18.1°F-7.7°C 72% Calm Calm 4.0 mph6.4 kmh 30.09 in1019.0 mb 0.00 in0.0 mm 0.00 in0.0 mm 0.00 in0.0 mm
03:10 PM 26.2°F-3.2°C 18.4°F-7.6°C 72% Calm Calm 6.0 mph9.7 kmh 30.10 in1019.3 mb 0.00 in0.0 mm 0.00 in0.0 mm 0.00 in0.0 mm
03:00 PM 26.0°F-3.3°C 18.6°F-7.4°C 73% Calm Calm 7.0 mph11.3 kmh 30.09 in1019.0 mb 0.00 in0.0 mm 0.00 in0.0 mm 0.00 in0.0 mm
02:50 PM 26.0°F-3.3°C 18.6°F-7.4°C 73% Calm Calm 4.0 mph6.4 kmh 30.09 in1019.0 mb 0.00 in0.0 mm 0.00 in0.0 mm 0.00 in0.0 mm
02:40 PM 26.0°F-3.3°C 18.6°F-7.4°C 73% 3.0 mph NE4.8 kmh NE 7.0 mph11.3 kmh 30.10 in1019.3 mb 0.00 in0.0 mm 0.00 in0.0 mm 0.00 in0.0 mm
02:30 PM 25.8°F-3.4°C 18.4°F-7.6°C 73% Calm Calm 4.0 mph6.4 kmh 30.09 in1019.0 mb 0.00 in0.0 mm 0.00 in0.0 mm 0.00 in0.0 mm
02:20 PM 25.9°F-3.4°C 18.5°F-7.5°C 73% Calm Calm 4.0 mph6.4 kmh 30.10 in1019.3 mb 0.00 in0.0 mm 0.00 in0.0 mm 0.00 in0.0 mm
02:10 PM 25.7°F-3.5°C 18.3°F-7.6°C 73% Calm Calm 5.0 mph8.0 kmh 30.09 in1019.0 mb 0.00 in0.0 mm 0.00 in0.0 mm 0.00 in0.0 mm
02:00 PM 25.5°F-3.6°C 18.4°F-7.6°C 74% 3.0 mph NW4.8 kmh NW 6.0 mph9.7 kmh 30.09 in1019.0 mb 0.00 in0.0 mm 0.00 in0.0 mm 0.00 in0.0 mm
01:50 PM 25.4°F-3.7°C 18.3°F-7.6°C 74% Calm Calm 5.0 mph8.0 kmh 30.10 in1019.3 mb 0.00 in0.0 mm 0.00 in0.0 mm 0.00 in0.0 mm
01:40 PM 25.7°F-3.5°C 18.6°F-7.4°C 74% Calm Calm 6.0 mph9.7 kmh 30.09 in1019.0 mb 0.00 in0.0 mm 0.00 in0.0 mm 0.00 in0.0 mm
01:30 PM 25.4°F-3.7°C 18.3°F-7.6°C 74% Calm Calm 5.0 mph8.0 kmh 30.10 in1019.3 mb 0.00 in0.0 mm 0.00 in0.0 mm 0.00 in0.0 mm
01:20 PM 25.1°F-3.8°C 18.3°F-7.6°C 75% 4.0 mph NNW6.4 kmh NNW 7.0 mph11.3 kmh 30.09 in1019.0 mb 0.00 in0.0 mm 0.00 in0.0 mm 0.00 in0.0 mm
01:10 PM 24.9°F-3.9°C 18.1°F-7.7°C 75% 4.0 mph NW6.4 kmh NW 6.0 mph9.7 kmh 30.09 in1019.0 mb 0.00 in0.0 mm 0.00 in0.0 mm 0.00 in0.0 mm
01:00 PM 24.9°F-3.9°C 18.4°F-7.6°C 76% 3.0 mph N4.8 kmh N 5.0 mph8.0 kmh 30.10 in1019.3 mb 0.00 in0.0 mm 0.00 in0.0 mm 0.00 in0.0 mm
12:50 PM 24.6°F-4.1°C 18.1°F-7.7°C 76% 5.0 mph NNW8.0 kmh NNW 10.0 mph16.1 kmh 30.10 in1019.3 mb 0.00 in0.0 mm 0.00 in0.0 mm 0.00 in0.0 mm
12:40 PM 24.7°F-4.1°C 18.2°F-7.7°C 76% 6.0 mph NW9.7 kmh NW 11.0 mph17.7 kmh 30.09 in1019.0 mb 0.00 in0.0 mm 0.00 in0.0 mm 0.00 in0.0 mm
12:30 PM 24.5°F-4.2°C 18.0°F-7.8°C 76% 3.0 mph NNW4.8 kmh NNW 10.0 mph16.1 kmh 30.09 in1019.0 mb 0.00 in0.0 mm 0.00 in0.0 mm 0.00 in0.0 mm
12:20 PM 24.3°F-4.3°C 18.1°F-7.7°C 77% 6.0 mph NNW9.7 kmh NNW 7.0 mph11.3 kmh 30.09 in1019.0 mb 0.00 in0.0 mm 0.00 in0.0 mm 0.00 in0.0 mm
12:10 PM 24.1°F-4.4°C 18.0°F-7.8°C 77% 3.0 mph N4.8 kmh N 7.0 mph11.3 kmh 30.10 in1019.3 mb 0.00 in0.0 mm 0.00 in0.0 mm 0.00 in0.0 mm
12:00 PM 24.2°F-4.3°C 18.0°F-7.8°C 77% 3.0 mph N4.8 kmh N 8.0 mph12.9 kmh 30.10 in1019.3 mb 0.00 in0.0 mm 0.00 in0.0 mm 0.00 in0.0 mm
11:50 AM 24.3°F-4.3°C 18.1°F-7.7°C 77% 2.0 mph N3.2 kmh N 6.0 mph9.7 kmh 30.10 in1019.3 mb 0.00 in0.0 mm 0.00 in0.0 mm 0.00 in0.0 mm
11:40 AM 24.4°F-4.2°C 17.9°F-7.8°C 76% 7.0 mph NE11.3 kmh NE 9.0 mph14.5 kmh 30.10 in1019.3 mb 0.00 in0.0 mm 0.00 in0.0 mm 0.00 in0.0 mm
11:30 AM 24.5°F-4.2°C 18.3°F-7.6°C 77% 3.0 mph NE4.8 kmh NE 7.0 mph11.3 kmh 30.10 in1019.3 mb 0.00 in0.0 mm 0.00 in0.0 mm 0.00 in0.0 mm
11:20 AM 24.4°F-4.2°C 18.5°F-7.5°C 78% 5.0 mph NNE8.0 kmh NNE 9.0 mph14.5 kmh 30.10 in1019.3 mb 0.00 in0.0 mm 0.00 in0.0 mm 0.00 in0.0 mm
11:10 AM 24.2°F-4.3°C 18.0°F-7.8°C 77% 5.0 mph N8.0 kmh N 7.0 mph11.3 kmh 30.09 in1019.0 mb 0.00 in0.0 mm 0.00 in0.0 mm 0.00 in0.0 mm
11:00 AM 24.3°F-4.3°C 18.1°F-7.7°C 77% 9.0 mph NNE14.5 kmh NNE 10.0 mph16.1 kmh 30.09 in1019.0 mb 0.00 in0.0 mm 0.00 in0.0 mm 0.00 in0.0 mm
10:50 AM 24.3°F-4.3°C 18.1°F-7.7°C 77% 4.0 mph NE6.4 kmh NE 7.0 mph11.3 kmh 30.09 in1019.0 mb 0.00 in0.0 mm 0.00 in0.0 mm 0.00 in0.0 mm
10:40 AM 24.2°F-4.3°C 18.0°F-7.8°C 77% 4.0 mph NE6.4 kmh NE 9.0 mph14.5 kmh 30.09 in1019.0 mb 0.00 in0.0 mm 0.00 in0.0 mm 0.00 in0.0 mm
10:30 AM 24.0°F-4.4°C 18.2°F-7.7°C 78% 7.0 mph NE11.3 kmh NE 9.0 mph14.5 kmh 30.08 in1018.6 mb 0.00 in0.0 mm 0.00 in0.0 mm 0.00 in0.0 mm
10:20 AM 24.0°F-4.4°C 18.2°F-7.7°C 78% 4.0 mph NNE6.4 kmh NNE 6.0 mph9.7 kmh 30.07 in1018.3 mb 0.00 in0.0 mm 0.00 in0.0 mm 0.00 in0.0 mm
10:10 AM 23.7°F-4.6°C 17.9°F-7.8°C 78% Calm Calm 7.0 mph11.3 kmh 30.07 in1018.3 mb 0.00 in0.0 mm 0.00 in0.0 mm 0.00 in0.0 mm
10:00 AM 23.7°F-4.6°C 17.9°F-7.8°C 78% 2.0 mph NE3.2 kmh NE 10.0 mph16.1 kmh 30.07 in1018.3 mb 0.00 in0.0 mm 0.00 in0.0 mm 0.00 in0.0 mm
09:50 AM 23.6°F-4.7°C 17.8°F-7.9°C 78% 1.0 mph NE1.6 kmh NE 10.0 mph16.1 kmh 30.06 in1017.9 mb 0.00 in0.0 mm 0.00 in0.0 mm 0.00 in0.0 mm
09:40 AM 23.7°F-4.6°C 17.9°F-7.8°C 78% 4.0 mph NE6.4 kmh NE 10.0 mph16.1 kmh 30.05 in1017.6 mb 0.00 in0.0 mm 0.00 in0.0 mm 0.00 in0.0 mm
09:30 AM 23.8°F-4.6°C 18.0°F-7.8°C 78% 9.0 mph NNE14.5 kmh NNE 11.0 mph17.7 kmh 30.05 in1017.6 mb 0.00 in0.0 mm 0.00 in0.0 mm 0.00 in0.0 mm
09:20 AM 23.9°F-4.5°C 18.1°F-7.7°C 78% 8.0 mph NE12.9 kmh NE 11.0 mph17.7 kmh 30.04 in1017.3 mb 0.00 in0.0 mm 0.00 in0.0 mm 0.00 in0.0 mm
09:10 AM 23.9°F-4.5°C 18.1°F-7.7°C 78% 5.0 mph NNW8.0 kmh NNW 13.0 mph20.9 kmh 30.04 in1017.3 mb 0.00 in0.0 mm 0.00 in0.0 mm 0.00 in0.0 mm
09:00 AM 24.1°F-4.4°C 18.3°F-7.6°C 78% 11.0 mph N17.7 kmh N 11.0 mph17.7 kmh 30.03 in1016.9 mb 0.00 in0.0 mm 0.00 in0.0 mm 0.00 in0.0 mm
08:50 AM 24.0°F-4.4°C 18.2°F-7.7°C 78% 3.0 mph N4.8 kmh N 11.0 mph17.7 kmh 30.03 in1016.9 mb 0.00 in0.0 mm 0.00 in0.0 mm 0.00 in0.0 mm
08:40 AM 24.1°F-4.4°C 18.3°F-7.6°C 78% 5.0 mph N8.0 kmh N 12.0 mph19.3 kmh 30.02 in1016.6 mb 0.00 in0.0 mm 0.00 in0.0 mm 0.00 in0.0 mm
08:30 AM 24.3°F-4.3°C 18.4°F-7.6°C 78% 5.0 mph NNE8.0 kmh NNE 13.0 mph20.9 kmh 30.02 in1016.6 mb 0.00 in0.0 mm 0.00 in0.0 mm 0.00 in0.0 mm
08:20 AM 24.5°F-4.2°C 18.3°F-7.6°C 77% 6.0 mph NNW9.7 kmh NNW 11.0 mph17.7 kmh 30.01 in1016.3 mb 0.00 in0.0 mm 0.00 in0.0 mm 0.00 in0.0 mm
08:10 AM 24.4°F-4.2°C 18.2°F-7.7°C 77% 3.0 mph NNW4.8 kmh NNW 8.0 mph12.9 kmh 30.01 in1016.3 mb 0.00 in0.0 mm 0.00 in0.0 mm 0.00 in0.0 mm
08:00 AM 24.4°F-4.2°C 18.2°F-7.7°C 77% 6.0 mph NNW9.7 kmh NNW 7.0 mph11.3 kmh 30.01 in1016.3 mb 0.00 in0.0 mm 0.00 in0.0 mm 0.00 in0.0 mm
07:50 AM 24.4°F-4.2°C 18.2°F-7.7°C 77% 5.0 mph N8.0 kmh N 9.0 mph14.5 kmh 30.00 in1015.9 mb 0.00 in0.0 mm 0.00 in0.0 mm 0.00 in0.0 mm
07:40 AM 24.5°F-4.2°C 18.3°F-7.6°C 77% 5.0 mph NNW8.0 kmh NNW 11.0 mph17.7 kmh 30.00 in1015.9 mb 0.00 in0.0 mm 0.00 in0.0 mm 0.00 in0.0 mm
07:30 AM 24.6°F-4.1°C 18.4°F-7.6°C 77% 11.0 mph N17.7 kmh N 13.0 mph20.9 kmh 29.99 in1015.6 mb 0.00 in0.0 mm 0.00 in0.0 mm 0.00 in0.0 mm
07:20 AM 24.9°F-3.9°C 18.7°F-7.4°C 77% 7.0 mph NNE11.3 kmh NNE 11.0 mph17.7 kmh 29.98 in1015.2 mb 0.00 in0.0 mm 0.00 in0.0 mm 0.00 in0.0 mm
07:10 AM 25.3°F-3.7°C 18.8°F-7.3°C 76% 6.0 mph NNW9.7 kmh NNW 11.0 mph17.7 kmh 29.98 in1015.2 mb 0.00 in0.0 mm 0.00 in0.0 mm 0.00 in0.0 mm
07:00 AM 25.6°F-3.6°C 19.1°F-7.2°C 76% 4.0 mph N6.4 kmh N 8.0 mph12.9 kmh 29.97 in1014.9 mb 0.00 in0.0 mm 0.00 in0.0 mm 0.00 in0.0 mm
06:50 AM 25.6°F-3.6°C 19.1°F-7.2°C 76% 3.0 mph NW4.8 kmh NW 11.0 mph17.7 kmh 29.96 in1014.6 mb 0.00 in0.0 mm 0.00 in0.0 mm 0.00 in0.0 mm
06:40 AM 25.7°F-3.5°C 19.2°F-7.1°C 76% 2.0 mph NNW3.2 kmh NNW 6.0 mph9.7 kmh 29.95 in1014.2 mb 0.00 in0.0 mm 0.00 in0.0 mm 0.00 in0.0 mm
06:30 AM 25.8°F-3.4°C 19.0°F-7.2°C 75% 7.0 mph NW11.3 kmh NW 10.0 mph16.1 kmh 29.96 in1014.6 mb 0.00 in0.0 mm 0.00 in0.0 mm 0.00 in0.0 mm
06:20 AM 26.0°F-3.3°C 19.2°F-7.1°C 75% 6.0 mph NW9.7 kmh NW 13.0 mph20.9 kmh 29.95 in1014.2 mb 0.00 in0.0 mm 0.00 in0.0 mm 0.00 in0.0 mm
06:10 AM 26.1°F-3.3°C 19.3°F-7.1°C 75% 15.0 mph NW24.1 kmh NW 15.0 mph24.1 kmh 29.94 in1013.9 mb 0.00 in0.0 mm 0.00 in0.0 mm 0.00 in0.0 mm
06:00 AM 26.3°F-3.2°C 19.5°F-6.9°C 75% 11.0 mph NW17.7 kmh NW 14.0 mph22.5 kmh 29.93 in1013.5 mb 0.00 in0.0 mm 0.00 in0.0 mm 0.00 in0.0 mm
05:50 AM 26.7°F-2.9°C 19.9°F-6.7°C 75% 6.0 mph N9.7 kmh N 15.0 mph24.1 kmh 29.92 in1013.2 mb 0.00 in0.0 mm 0.00 in0.0 mm 0.00 in0.0 mm
05:40 AM 26.9°F-2.8°C 20.1°F-6.6°C 75% Calm Calm 11.0 mph17.7 kmh 29.91 in1012.9 mb 0.00 in0.0 mm 0.00 in0.0 mm 0.00 in0.0 mm
05:30 AM 27.3°F-2.6°C 20.1°F-6.6°C 74% 5.0 mph NW8.0 kmh NW 16.0 mph25.7 kmh 29.90 in1012.5 mb 0.00 in0.0 mm 0.00 in0.0 mm 0.00 in0.0 mm
05:20 AM 27.9°F-2.3°C 20.7°F-6.3°C 74% 6.0 mph NW9.7 kmh NW 15.0 mph24.1 kmh 29.89 in1012.2 mb 0.00 in0.0 mm 0.00 in0.0 mm 0.00 in0.0 mm
05:10 AM 28.7°F-1.8°C 21.2°F-6.0°C 73% 5.0 mph N8.0 kmh N 13.0 mph20.9 kmh 29.88 in1011.9 mb 0.00 in0.0 mm 0.00 in0.0 mm 0.00 in0.0 mm
05:00 AM 29.9°F-1.2°C 22.3°F-5.4°C 73% 5.0 mph NNW8.0 kmh NNW 12.0 mph19.3 kmh 29.87 in1011.5 mb 0.00 in0.0 mm 0.00 in0.0 mm 0.00 in0.0 mm
04:50 AM 30.4°F-0.9°C 23.1°F-4.9°C 74% 5.0 mph NW8.0 kmh NW 12.0 mph19.3 kmh 29.86 in1011.2 mb 0.00 in0.0 mm 0.00 in0.0 mm 0.00 in0.0 mm
04:40 AM 30.7°F-0.7°C 23.4°F-4.8°C 74% 6.0 mph NW9.7 kmh NW 11.0 mph17.7 kmh 29.85 in1010.8 mb 0.00 in0.0 mm 0.00 in0.0 mm 0.00 in0.0 mm
04:30 AM 30.8°F-0.7°C 23.5°F-4.7°C 74% 9.0 mph N14.5 kmh N 15.0 mph24.1 kmh 29.85 in1010.8 mb 0.00 in0.0 mm 0.00 in0.0 mm 0.00 in0.0 mm
04:20 AM 30.8°F-0.7°C 23.5°F-4.7°C 74% 4.0 mph NW6.4 kmh NW 16.0 mph25.7 kmh 29.84 in1010.5 mb 0.00 in0.0 mm 0.00 in0.0 mm 0.00 in0.0 mm
04:10 AM 30.9°F-0.6°C 23.3°F-4.8°C 73% 3.0 mph NW4.8 kmh NW 11.0 mph17.7 kmh 29.84 in1010.5 mb 0.00 in0.0 mm 0.00 in0.0 mm 0.00 in0.0 mm
04:00 AM 31.0°F-0.6°C 23.4°F-4.8°C 73% 9.0 mph NW14.5 kmh NW 16.0 mph25.7 kmh 29.83 in1010.2 mb 0.00 in0.0 mm 0.00 in0.0 mm 0.00 in0.0 mm
03:50 AM 31.0°F-0.6°C 23.1°F-4.9°C 72% 6.0 mph WNW9.7 kmh WNW 11.0 mph17.7 kmh 29.83 in1010.2 mb 0.00 in0.0 mm 0.00 in0.0 mm 0.00 in0.0 mm
03:40 AM 31.1°F-0.5°C 23.5°F-4.7°C 73% 9.0 mph NW14.5 kmh NW 15.0 mph24.1 kmh 29.81 in1009.5 mb 0.00 in0.0 mm 0.00 in0.0 mm 0.00 in0.0 mm
03:30 AM 31.1°F-0.5°C 23.5°F-4.7°C 73% Calm Calm 12.0 mph19.3 kmh 29.82 in1009.8 mb 0.00 in0.0 mm 0.00 in0.0 mm 0.00 in0.0 mm
03:20 AM 31.2°F-0.4°C 23.6°F-4.7°C 73% 4.0 mph WNW6.4 kmh WNW 9.0 mph14.5 kmh 29.81 in1009.5 mb 0.00 in0.0 mm 0.00 in0.0 mm 0.00 in0.0 mm
03:10 AM 31.1°F-0.5°C 23.5°F-4.7°C 73% 10.0 mph NW16.1 kmh NW 11.0 mph17.7 kmh 29.80 in1009.1 mb 0.00 in0.0 mm 0.00 in0.0 mm 0.00 in0.0 mm
03:00 AM 31.1°F-0.5°C 23.1°F-4.9°C 72% 4.0 mph NW6.4 kmh NW 14.0 mph22.5 kmh 29.79 in1008.8 mb 0.00 in0.0 mm 0.00 in0.0 mm 0.00 in0.0 mm
02:50 AM 31.3°F-0.4°C 23.0°F-5.0°C 71% 6.0 mph NW9.7 kmh NW 13.0 mph20.9 kmh 29.79 in1008.8 mb 0.00 in0.0 mm 0.00 in0.0 mm 0.00 in0.0 mm
02:40 AM 31.6°F-0.2°C 23.3°F-4.8°C 71% 6.0 mph W9.7 kmh W 18.0 mph29.0 kmh 29.78 in1008.5 mb 0.00 in0.0 mm 0.00 in0.0 mm 0.00 in0.0 mm
02:30 AM 32.0°F0.0°C 23.7°F-4.6°C 71% 6.0 mph NW9.7 kmh NW 19.0 mph30.6 kmh 29.77 in1008.1 mb 0.00 in0.0 mm 0.00 in0.0 mm 0.00 in0.0 mm
02:20 AM 32.5°F0.3°C 24.2°F-4.3°C 71% 5.0 mph WNW8.0 kmh WNW 19.0 mph30.6 kmh 29.76 in1007.8 mb 0.00 in0.0 mm 0.00 in0.0 mm 0.00 in0.0 mm
02:10 AM 32.6°F0.3°C 24.3°F-4.3°C 71% 4.0 mph WNW6.4 kmh WNW 17.0 mph27.4 kmh 29.75 in1007.5 mb 0.00 in0.0 mm 0.00 in0.0 mm 0.00 in0.0 mm
02:00 AM 32.9°F0.5°C 24.9°F-3.9°C 72% 4.0 mph WNW6.4 kmh WNW 17.0 mph27.4 kmh 29.74 in1007.1 mb 0.00 in0.0 mm 0.00 in0.0 mm 0.00 in0.0 mm
01:50 AM 33.3°F0.7°C 25.6°F-3.6°C 73% 16.0 mph W25.7 kmh W 22.0 mph35.4 kmh 29.72 in1006.4 mb 0.00 in0.0 mm 0.00 in0.0 mm 0.00 in0.0 mm
01:40 AM 33.8°F1.0°C 26.1°F-3.3°C 73% 13.0 mph WSW20.9 kmh WSW 27.0 mph43.5 kmh 29.72 in1006.4 mb 0.00 in0.0 mm 0.00 in0.0 mm 0.00 in0.0 mm
01:30 AM 34.2°F1.2°C 26.8°F-2.9°C 74% 11.0 mph W17.7 kmh W 25.0 mph40.2 kmh 29.71 in1006.1 mb 0.00 in0.0 mm 0.00 in0.0 mm 0.00 in0.0 mm
01:20 AM 34.7°F1.5°C 27.6°F-2.4°C 75% 10.0 mph WNW16.1 kmh WNW 22.0 mph35.4 kmh 29.70 in1005.8 mb 0.00 in0.0 mm 0.00 in0.0 mm 0.00 in0.0 mm
01:10 AM 35.1°F1.7°C 28.0°F-2.2°C 75% 9.0 mph NW14.5 kmh NW 19.0 mph30.6 kmh 29.68 in1005.1 mb 0.00 in0.0 mm 0.00 in0.0 mm 0.00 in0.0 mm
01:00 AM 35.5°F1.9°C 28.4°F-2.0°C 75% 11.0 mph WNW17.7 kmh WNW 22.0 mph35.4 kmh 29.68 in1005.1 mb 0.00 in0.0 mm 0.00 in0.0 mm 0.00 in0.0 mm
12:50 AM 35.8°F2.1°C 28.7°F-1.8°C 75% 10.0 mph WSW16.1 kmh WSW 20.0 mph32.2 kmh 29.67 in1004.7 mb 0.00 in0.0 mm 0.00 in0.0 mm 0.00 in0.0 mm
12:40 AM 36.1°F2.3°C 29.0°F-1.7°C 75% 12.0 mph WNW19.3 kmh WNW 24.0 mph38.6 kmh 29.66 in1004.4 mb 0.00 in0.0 mm 0.00 in0.0 mm 0.00 in0.0 mm
12:30 AM 36.6°F2.6°C 29.1°F-1.6°C 74% 15.0 mph WSW24.1 kmh WSW 18.0 mph29.0 kmh 29.66 in1004.4 mb 0.00 in0.0 mm 0.00 in0.0 mm 0.00 in0.0 mm
12:20 AM 37.1°F2.8°C 29.6°F-1.3°C 74% 14.0 mph NW22.5 kmh NW 22.0 mph35.4 kmh 29.65 in1004.1 mb 0.00 in0.0 mm 0.00 in0.0 mm 0.00 in0.0 mm
12:10 AM 37.5°F3.1°C 30.0°F-1.1°C 74% 15.0 mph WNW24.1 kmh WNW 23.0 mph37.0 kmh 29.64 in1003.7 mb 0.00 in0.0 mm 0.00 in0.0 mm 0.00 in0.0 mm
12:00 AM 37.8°F3.2°C 30.3°F-0.9°C 74% 13.0 mph W20.9 kmh W 19.0 mph30.6 kmh 29.63 in1003.4 mb 0.00 in0.0 mm 0.00 in0.0 mm 0.00 in0.0 mm